ポンペイ島 の空港の天気 - METARとTAF

ポンペイ国際空港 ( PTPN / PNI ) - ミクロネシア連邦 ポンペイ島
飛行場実況気象(Metar)
観測時間01/19 19:56 +11 (01/19 08:56 UTC)
風向・風速東北東 4m/s
視程10km以上
天気現象
全天の8割程度の雲 雲底高度 550m
全天を覆う雲 雲底高度 9140m
気温28℃
湿度84%
気圧1008hPa
METARPTPN 190856Z 07007KT 15SM BKN018 OVC300 28/25 A2978
過去の天気等 Google飛行場航空写真 Wunderground天気予報

過去48時間のMETAR

飛行場予報(TAF)
発表時間: 1/19 16:27 +11 (1/19 05:27 UTC)
予報対象時間: 19日17時 +11 ~ 20日17時 +11
風向・風速東北東 7m/s
視程10km以上
天気現象周辺でしゅう雨
全天の4割程度の雲 雲底高度 550m
全天の4割程度の雲 雲底高度 1520m
全天の8割程度の雲 雲底高度 4270m
PTPN 190527Z 1906/2006 07013KT P6SM VCSH SCT018 SCT050 BKN140